Terminal Aerodrome Forecast
Issued by NWS Dallas/Fort Worth, TX

Home | Current Version | Previous Version | Text Only | Print | Product List | Glossary On
Versions: 1 2 3 4 5 6 7 8 9 10 11 12 13 14 15 16 17 18 19 20 21 22 23 24 25 26 27 28 29
000
FTUS44 KFWD 220900 AAA
TAFACT
TAF AMD
KACT 220912Z 2209/2306 01009KT P6SM SCT060 BKN250
     FM221500 04012KT P6SM VCSH SCT070 SCT090 BKN110
     FM230200 07006KT P6SM SCT250=

USA.gov is the U.S. government's official web portal to all federal, state and local government web resources and services.